Time;durP1;ratioP1;P1;durP2;ratioP2;P2;SDS_P1;SDS_P2;PMS_P1;PMS_P2;Temp;Humidity;BMP_temperature;BMP_pressure;BME280_temperature;BME280_humidity;BME280_pressure;Samples;Min_cycle;Max_cycle;Signal;HPM_P1;HPM_P2
2022/07/08 00:01:44;;;;;;;;;;;;;;;14.10;64.87;98907.06;5133497;27;19923;-59
2022/07/08 00:04:14;;;;;;;;;;;;;;;14.05;65.02;98915.38;5130057;27;20115;-57
2022/07/08 00:06:42;;;;;;;;;;;;;;;14.03;65.04;98915.69;5132660;27;20237;-59
2022/07/08 00:09:10;;;;;;;;;;;;;;;14.05;64.85;98913.44;5131261;27;19932;-59
2022/07/08 00:11:40;;;;;;;;;;;;;;;14.02;64.89;98921.47;5130348;27;19931;-58
2022/07/08 00:14:08;;;;;;;;;;;;;;;13.93;65.26;98921.38;5110054;27;19934;-58
2022/07/08 00:16:40;;;;;;;;;;;;;;;13.91;64.60;98920.91;5121137;27;19925;-58
2022/07/08 00:19:33;;;;;;;;;;;;;;;13.96;65.28;98914.50;5122707;27;20467;-58
2022/07/08 00:22:01;;;;;;;;;;;;;;;13.89;65.25;98920.38;5121710;27;19998;-58
2022/07/08 00:24:30;;;;;;;;;;;;;;;13.87;64.77;98925.34;5127066;27;19925;-58
2022/07/08 00:26:58;;;;;;;;;;;;;;;13.81;64.99;98918.41;5128482;27;19930;-58
2022/07/08 00:29:26;;;;;;;;;;;;;;;13.78;65.19;98928.00;5108373;27;19927;-58
2022/07/08 00:31:54;;;;;;;;;;;;;;;13.76;65.89;98930.25;5127068;27;19931;-58
2022/07/08 00:34:22;;;;;;;;;;;;;;;13.71;65.81;98927.63;5125563;27;20293;-58
2022/07/08 00:36:52;;;;;;;;;;;;;;;13.78;65.66;98922.53;5127050;27;19935;-58
2022/07/08 00:39:20;;;;;;;;;;;;;;;13.68;65.85;98930.16;5124150;27;19919;-58
2022/07/08 00:41:48;;;;;;;;;;;;;;;13.65;66.25;98934.31;5090885;27;19920;-58
2022/07/08 00:44:17;;;;;;;;;;;;;;;13.62;66.49;98929.44;5108963;27;20330;-58
2022/07/08 00:46:45;;;;;;;;;;;;;;;13.74;65.87;98932.47;5126244;27;19923;-58
2022/07/08 00:49:13;;;;;;;;;;;;;;;13.70;65.71;98931.47;5127535;27;19929;-57
2022/07/08 00:51:41;;;;;;;;;;;;;;;13.69;65.89;98931.75;5127290;27;19925;-58
2022/07/08 00:54:11;;;;;;;;;;;;;;;13.68;65.73;98930.94;5127014;27;20016;-58
2022/07/08 00:56:39;;;;;;;;;;;;;;;13.65;66.12;98936.25;5124000;27;20249;-58
2022/07/08 00:59:08;;;;;;;;;;;;;;;13.58;66.05;98933.91;5121529;27;19930;-58
2022/07/08 01:01:36;;;;;;;;;;;;;;;13.53;66.64;98934.00;5131418;27;19967;-58
2022/07/08 01:04:04;;;;;;;;;;;;;;;13.46;66.45;98936.34;5139470;27;19919;-58
2022/07/08 01:06:33;;;;;;;;;;;;;;;13.40;66.54;98934.84;5138729;27;20356;-58
2022/07/08 01:09:02;;;;;;;;;;;;;;;13.38;66.90;98937.88;5125960;27;20036;-58
2022/07/08 01:11:31;;;;;;;;;;;;;;;13.29;66.88;98945.97;5123342;27;19949;-58
2022/07/08 01:14:00;;;;;;;;;;;;;;;13.32;67.47;98942.66;5107835;27;20336;-58
2022/07/08 01:16:28;;;;;;;;;;;;;;;13.27;67.40;98937.28;5110649;27;19924;-60
2022/07/08 01:18:56;;;;;;;;;;;;;;;13.29;67.00;98950.63;5105483;28;19964;-58
2022/07/08 01:21:26;;;;;;;;;;;;;;;13.30;66.91;98949.50;5103118;28;19928;-58
2022/07/08 01:23:54;;;;;;;;;;;;;;;13.32;66.75;98955.47;5102417;28;20015;-58
2022/07/08 01:26:23;;;;;;;;;;;;;;;13.28;66.93;98957.19;5106568;28;20363;-56
2022/07/08 01:28:51;;;;;;;;;;;;;;;13.25;67.28;98953.13;5104772;28;19942;-57
2022/07/08 01:31:19;;;;;;;;;;;;;;;13.19;66.88;98967.16;5102726;28;19964;-57
2022/07/08 01:33:50;;;;;;;;;;;;;;;13.20;67.28;98963.31;5105753;28;19920;-58
2022/07/08 01:36:18;;;;;;;;;;;;;;;13.10;67.29;98958.84;5106264;28;19923;-58
2022/07/08 01:38:48;;;;;;;;;;;;;;;13.11;66.57;98971.41;5103677;28;19923;-58
2022/07/08 01:41:16;;;;;;;;;;;;;;;13.14;66.50;98967.25;5105899;28;20029;-58
2022/07/08 01:43:44;;;;;;;;;;;;;;;13.10;67.02;98970.59;5089230;28;19920;-58
2022/07/08 01:46:13;;;;;;;;;;;;;;;13.14;66.78;98975.44;5099098;28;20176;-58
2022/07/08 01:48:41;;;;;;;;;;;;;;;13.17;66.14;98972.13;5106582;28;19947;-58
2022/07/08 01:51:09;;;;;;;;;;;;;;;13.17;66.39;98969.41;5105339;28;19920;-58
2022/07/08 01:53:37;;;;;;;;;;;;;;;13.15;66.13;98963.41;5106608;28;20283;-58
2022/07/08 01:56:09;;;;;;;;;;;;;;;13.11;65.36;98976.88;5100847;28;19941;-58
2022/07/08 01:58:37;;;;;;;;;;;;;;;13.17;65.40;98975.66;5100678;28;20274;-58
2022/07/08 02:01:08;;;;;;;;;;;;;;;13.20;65.66;98968.78;5102947;28;19972;-59
2022/07/08 02:03:37;;;;;;;;;;;;;;;13.19;65.03;98973.44;5101917;28;20442;-58
2022/07/08 02:09:00;;;;;;;;;;;;;;;13.09;65.23;98971.69;5111491;27;20017;-58
2022/07/08 02:14:16;;;;;;;;;;;;;;;13.02;65.35;98968.56;5103682;28;19926;-58
2022/07/08 02:16:54;;;;;;;;;;;;;;;12.99;65.04;98968.34;5105582;28;19942;-58
2022/07/08 02:19:24;;;;;;;;;;;;;;;13.02;65.57;98963.09;5102325;28;20327;-57
2022/07/08 02:22:01;;;;;;;;;;;;;;;13.04;65.04;98962.78;5103554;28;19932;-58
2022/07/08 02:24:29;;;;;;;;;;;;;;;13.04;65.01;98971.78;5104802;28;20301;-58
2022/07/08 02:26:59;;;;;;;;;;;;;;;13.02;65.23;98975.94;5105746;28;19919;-58
2022/07/08 02:29:27;;;;;;;;;;;;;;;13.02;65.59;98968.56;5101658;28;19932;-57
2022/07/08 02:31:55;;;;;;;;;;;;;;;12.95;65.97;98973.63;5101116;28;19930;-58
2022/07/08 02:34:23;;;;;;;;;;;;;;;12.92;66.07;98966.03;5106541;28;19986;-56
2022/07/08 02:36:51;;;;;;;;;;;;;;;12.98;66.26;98975.72;5110134;28;19920;-58
2022/07/08 02:39:21;;;;;;;;;;;;;;;12.92;66.34;98976.94;5112339;27;19930;-57
2022/07/08 02:41:49;;;;;;;;;;;;;;;12.93;66.21;98981.28;5107182;28;19956;-58
2022/07/08 02:44:19;;;;;;;;;;;;;;;12.89;66.48;98980.28;5090551;28;19924;-59
2022/07/08 02:46:47;;;;;;;;;;;;;;;12.88;66.17;98983.28;5109255;28;19942;-58
2022/07/08 02:49:15;;;;;;;;;;;;;;;12.83;66.86;98984.97;5100995;28;19969;-58
2022/07/08 02:51:43;;;;;;;;;;;;;;;12.79;66.60;98984.00;5105366;27;19931;-58
2022/07/08 02:54:12;;;;;;;;;;;;;;;12.83;66.71;98989.63;5104237;28;19919;-58
2022/07/08 02:56:40;;;;;;;;;;;;;;;12.79;66.98;98992.16;5118857;27;19934;-58
2022/07/08 02:59:08;;;;;;;;;;;;;;;12.73;66.90;98992.53;5115774;27;19924;-58
2022/07/08 03:01:37;;;;;;;;;;;;;;;12.74;67.05;98999.63;5122027;27;19923;-57
2022/07/08 03:04:06;;;;;;;;;;;;;;;12.71;67.34;98997.47;5119292;27;20283;-58
2022/07/08 03:06:34;;;;;;;;;;;;;;;12.67;67.25;98993.72;5095299;28;20316;-58
2022/07/08 03:09:02;;;;;;;;;;;;;;;12.71;67.45;98994.75;5112738;27;19920;-58
2022/07/08 03:11:31;;;;;;;;;;;;;;;12.67;67.78;98999.19;5110711;27;19930;-58
2022/07/08 03:13:59;;;;;;;;;;;;;;;12.61;68.07;99003.91;5110787;27;19923;-58
2022/07/08 03:16:32;;;;;;;;;;;;;;;12.57;67.89;99001.00;5108842;28;19924;-58
2022/07/08 03:19:01;;;;;;;;;;;;;;;12.54;68.07;99001.56;5107906;28;20354;-58
2022/07/08 03:21:29;;;;;;;;;;;;;;;12.54;68.19;99006.22;5108642;28;19931;-57
2022/07/08 03:23:57;;;;;;;;;;;;;;;12.55;67.87;99003.19;5105758;27;19920;-58
2022/07/08 03:26:25;;;;;;;;;;;;;;;12.57;67.85;99006.44;5108278;28;19928;-58
2022/07/08 03:28:53;;;;;;;;;;;;;;;12.56;67.90;99025.81;5108178;28;20262;-57
2022/07/08 03:31:21;;;;;;;;;;;;;;;12.62;67.80;99013.69;5103013;28;19930;-57
2022/07/08 03:33:50;;;;;;;;;;;;;;;12.64;67.49;99032.50;5109099;28;19919;-58
2022/07/08 03:36:20;;;;;;;;;;;;;;;12.64;67.49;99024.34;5111262;27;20219;-58
2022/07/08 03:38:49;;;;;;;;;;;;;;;12.68;67.33;99023.44;5109391;28;20287;-58
2022/07/08 03:41:23;;;;;;;;;;;;;;;12.72;67.04;99024.44;5108862;28;19924;-58
2022/07/08 03:43:52;;;;;;;;;;;;;;;12.77;66.93;99026.28;5108724;28;19934;-58
2022/07/08 03:46:20;;;;;;;;;;;;;;;12.76;66.52;99028.19;5106931;28;19926;-57
2022/07/08 03:48:53;;;;;;;;;;;;;;;12.78;66.81;99023.28;5107680;28;19920;-56
2022/07/08 03:51:23;;;;;;;;;;;;;;;12.84;66.74;99033.00;5113959;27;19952;-58
2022/07/08 03:53:52;;;;;;;;;;;;;;;12.82;66.48;99027.00;5108306;28;20319;-58
2022/07/08 03:56:20;;;;;;;;;;;;;;;12.76;66.27;99027.41;5108783;28;20350;-58
2022/07/08 03:58:48;;;;;;;;;;;;;;;12.70;66.68;99032.13;5109149;28;19937;-58
2022/07/08 04:01:16;;;;;;;;;;;;;;;12.72;66.69;99034.53;5106994;28;19920;-60
2022/07/08 04:03:45;;;;;;;;;;;;;;;12.71;66.84;99038.38;5099030;28;19920;-60
2022/07/08 04:06:39;;;;;;;;;;;;;;;12.63;66.40;99041.81;5097046;27;19934;-60
2022/07/08 04:09:08;;;;;;;;;;;;;;;12.58;66.47;99034.50;5093817;27;19931;-61
2022/07/08 04:11:37;;;;;;;;;;;;;;;12.58;66.55;99046.22;5091372;27;19926;-61
2022/07/08 04:14:05;;;;;;;;;;;;;;;12.63;66.50;99042.59;5075396;28;20363;-61
2022/07/08 04:16:33;;;;;;;;;;;;;;;12.62;66.03;99048.34;5108061;28;20270;-61
2022/07/08 04:19:03;;;;;;;;;;;;;;;12.59;65.49;99047.03;5106291;27;20340;-61
2022/07/08 04:21:31;;;;;;;;;;;;;;;12.66;65.74;99046.63;5111343;27;19923;-60
2022/07/08 04:24:01;;;;;;;;;;;;;;;12.71;65.43;99038.38;5104079;27;19923;-61
2022/07/08 04:26:31;;;;;;;;;;;;;;;12.73;65.09;99053.34;5107135;28;19926;-61
2022/07/08 04:28:59;;;;;;;;;;;;;;;12.70;64.70;99055.84;5108409;27;20348;-60
2022/07/08 04:31:27;;;;;;;;;;;;;;;12.56;64.66;99062.03;5101681;27;19924;-60
2022/07/08 04:33:56;;;;;;;;;;;;;;;12.63;65.34;99064.41;5095260;27;20385;-61
2022/07/08 04:36:34;;;;;;;;;;;;;;;12.70;64.96;99075.75;5101509;28;19926;-61
2022/07/08 04:39:03;;;;;;;;;;;;;;;12.68;64.68;99072.53;5105485;27;19919;-61
2022/07/08 04:41:31;;;;;;;;;;;;;;;12.68;64.91;99067.06;5102473;28;19930;-60
2022/07/08 04:43:59;;;;;;;;;;;;;;;12.73;64.55;99064.25;5106808;28;19931;-61
2022/07/08 04:46:27;;;;;;;;;;;;;;;12.79;64.79;99081.34;5106873;27;20267;-61
2022/07/08 04:48:56;;;;;;;;;;;;;;;12.90;64.13;99080.06;5107329;27;19924;-62
2022/07/08 04:51:24;;;;;;;;;;;;;;;12.92;64.48;99088.75;5099205;28;20295;-60
2022/07/08 04:53:56;;;;;;;;;;;;;;;12.86;63.82;99084.50;5100780;28;19920;-61
2022/07/08 04:56:26;;;;;;;;;;;;;;;12.90;64.54;99090.19;5106381;28;19932;-61
2022/07/08 04:58:53;;;;;;;;;;;;;;;12.91;64.06;99092.59;5104213;28;19980;-60
2022/07/08 05:01:22;;;;;;;;;;;;;;;12.93;64.25;99086.84;5102825;27;19920;-61
2022/07/08 05:03:50;;;;;;;;;;;;;;;12.92;63.89;99085.22;5103866;28;19936;-62
2022/07/08 05:06:42;;;;;;;;;;;;;;;12.97;64.64;99093.31;5100356;27;19920;-59
2022/07/08 05:09:12;;;;;;;;;;;;;;;13.00;64.35;99085.38;5108542;27;19919;-61
2022/07/08 05:11:41;;;;;;;;;;;;;;;13.03;64.30;99090.22;5105049;28;19926;-60
2022/07/08 05:14:13;;;;;;;;;;;;;;;13.05;63.95;99093.47;5102964;28;19924;-61
2022/07/08 05:17:05;;;;;;;;;;;;;;;13.06;63.68;99091.53;5099335;28;19969;-60
2022/07/08 05:19:34;;;;;;;;;;;;;;;13.06;63.55;99097.81;5097836;28;19924;-61
2022/07/08 05:22:02;;;;;;;;;;;;;;;13.08;63.22;99098.31;5098531;27;19943;-60
2022/07/08 05:24:30;;;;;;;;;;;;;;;13.17;63.41;99097.63;5099481;28;19945;-59
2022/07/08 05:26:59;;;;;;;;;;;;;;;13.19;63.08;99095.41;5095235;28;20010;-60
2022/07/08 05:29:28;;;;;;;;;;;;;;;13.23;63.42;99104.66;5100572;28;19919;-60
2022/07/08 05:31:56;;;;;;;;;;;;;;;13.31;62.79;99106.69;5096054;28;20433;-60
2022/07/08 05:34:24;;;;;;;;;;;;;;;13.41;63.21;99108.41;5101424;27;19919;-60
2022/07/08 05:36:54;;;;;;;;;;;;;;;13.42;62.63;99113.56;5103636;28;19976;-61
2022/07/08 05:39:24;;;;;;;;;;;;;;;13.38;62.21;99118.03;5109745;27;20284;-60
2022/07/08 05:41:53;;;;;;;;;;;;;;;13.37;62.59;99116.41;5109189;28;19924;-59
2022/07/08 05:44:22;;;;;;;;;;;;;;;13.40;62.76;99124.00;5106739;28;20379;-61
2022/07/08 05:46:51;;;;;;;;;;;;;;;13.44;62.49;99125.03;5106499;27;20311;-61
2022/07/08 05:49:19;;;;;;;;;;;;;;;13.49;61.87;99116.75;5114054;27;19942;-60
2022/07/08 05:51:47;;;;;;;;;;;;;;;13.51;62.33;99125.44;5107292;28;20391;-60
2022/07/08 05:54:15;;;;;;;;;;;;;;;13.52;62.37;99129.78;5109380;28;19926;-61
2022/07/08 05:56:43;;;;;;;;;;;;;;;13.62;62.09;99129.59;5110327;27;19928;-62
2022/07/08 05:59:11;;;;;;;;;;;;;;;13.67;60.59;99142.34;5104648;28;19924;-61
2022/07/08 06:01:40;;;;;;;;;;;;;;;13.72;60.92;99144.97;5108927;28;20314;-61
2022/07/08 06:04:10;;;;;;;;;;;;;;;13.73;61.00;99148.50;5104804;28;19963;-61
2022/07/08 06:06:38;;;;;;;;;;;;;;;13.74;60.01;99147.41;5103024;28;20224;-61
2022/07/08 06:09:06;;;;;;;;;;;;;;;13.93;60.06;99150.88;5086490;28;20266;-60
2022/07/08 06:11:35;;;;;;;;;;;;;;;13.81;60.28;99156.03;5091244;28;19923;-61
2022/07/08 06:14:12;;;;;;;;;;;;;;;13.85;61.20;99151.59;5104733;28;20087;-60
2022/07/08 06:16:50;;;;;;;;;;;;;;;13.82;60.66;99152.19;5108856;28;19920;-61
2022/07/08 06:19:19;;;;;;;;;;;;;;;13.99;60.92;99159.78;5099205;28;20340;-60
2022/07/08 06:21:50;;;;;;;;;;;;;;;13.89;59.77;99169.78;5101771;28;20331;-60
2022/07/08 06:24:23;;;;;;;;;;;;;;;13.99;59.71;99163.31;5099337;28;19924;-60
2022/07/08 06:26:51;;;;;;;;;;;;;;;13.93;59.73;99161.78;5103076;28;19957;-60
2022/07/08 06:29:19;;;;;;;;;;;;;;;13.83;59.85;99167.44;5101584;28;20028;-61
2022/07/08 06:31:49;;;;;;;;;;;;;;;13.80;60.07;99159.88;5086243;28;20324;-60
2022/07/08 06:34:17;;;;;;;;;;;;;;;13.88;59.92;99159.16;5077868;28;19926;-61
2022/07/08 06:36:45;;;;;;;;;;;;;;;13.80;59.88;99165.34;5099440;28;20306;-60
2022/07/08 06:39:13;;;;;;;;;;;;;;;13.81;59.73;99173.22;5095892;28;19932;-60
2022/07/08 06:41:41;;;;;;;;;;;;;;;13.84;59.64;99169.88;5100407;28;19930;-61
2022/07/08 06:44:09;;;;;;;;;;;;;;;13.83;60.19;99172.91;5092674;28;20309;-60
2022/07/08 06:46:38;;;;;;;;;;;;;;;13.89;60.53;99172.50;5094445;28;19926;-60
2022/07/08 06:49:08;;;;;;;;;;;;;;;13.87;59.44;99179.41;5092609;28;19984;-60
2022/07/08 06:51:36;;;;;;;;;;;;;;;13.85;60.65;99187.09;5097678;28;20367;-60
2022/07/08 06:56:50;;;;;;;;;;;;;;;13.98;60.26;99188.22;5090466;28;20376;-60
2022/07/08 06:59:18;;;;;;;;;;;;;;;14.04;60.66;99184.28;5093601;28;20327;-60
2022/07/08 07:01:46;;;;;;;;;;;;;;;14.03;60.30;99188.94;5100111;28;19920;-60
2022/07/08 07:04:16;;;;;;;;;;;;;;;13.98;60.49;99191.75;5101336;28;19940;-60
2022/07/08 07:06:44;;;;;;;;;;;;;;;13.99;60.08;99196.09;5106256;28;19924;-60
2022/07/08 07:09:13;;;;;;;;;;;;;;;13.96;60.27;99196.72;5097569;28;20125;-61
2022/07/08 07:11:42;;;;;;;;;;;;;;;13.92;59.76;99203.91;5093782;28;19924;-61
2022/07/08 07:14:10;;;;;;;;;;;;;;;13.93;60.37;99201.97;5078314;28;19920;-60
2022/07/08 07:16:38;;;;;;;;;;;;;;;14.03;59.72;99199.84;5096341;28;20252;-60
2022/07/08 07:19:07;;;;;;;;;;;;;;;14.02;60.01;99205.63;5078832;28;19927;-59
2022/07/08 07:21:36;;;;;;;;;;;;;;;13.98;59.65;99204.59;5077507;28;19968;-60
2022/07/08 07:24:05;;;;;;;;;;;;;;;14.02;60.11;99211.09;5082792;28;19932;-61
2022/07/08 07:26:33;;;;;;;;;;;;;;;13.94;59.93;99209.84;5085525;28;20544;-61
2022/07/08 07:29:01;;;;;;;;;;;;;;;14.10;60.23;99205.72;5081033;28;19921;-61
2022/07/08 07:31:30;;;;;;;;;;;;;;;14.10;60.10;99210.38;5080572;28;19920;-60
2022/07/08 07:33:58;;;;;;;;;;;;;;;14.11;60.42;99212.84;5080368;28;19924;-60
2022/07/08 07:36:26;;;;;;;;;;;;;;;14.07;60.04;99211.00;5077957;28;19924;-60
2022/07/08 07:38:55;;;;;;;;;;;;;;;14.05;59.42;99208.53;5082567;28;19928;-59
2022/07/08 07:41:23;;;;;;;;;;;;;;;14.11;59.33;99210.09;5082784;28;19924;-59
2022/07/08 07:43:54;;;;;;;;;;;;;;;14.16;59.25;99209.16;5082746;28;19924;-59
2022/07/08 07:46:22;;;;;;;;;;;;;;;14.25;58.96;99212.81;5080819;28;20021;-60
2022/07/08 07:48:51;;;;;;;;;;;;;;;14.20;58.37;99209.38;5080478;28;20010;-60
2022/07/08 07:51:18;;;;;;;;;;;;;;;14.31;58.81;99200.66;5095549;28;19954;-59
2022/07/08 07:53:47;;;;;;;;;;;;;;;14.34;58.84;99212.94;5074844;28;19921;-59
2022/07/08 07:56:16;;;;;;;;;;;;;;;14.49;58.55;99200.88;5080863;28;20005;-59
2022/07/08 07:58:44;;;;;;;;;;;;;;;14.66;58.68;99199.16;5090701;28;19969;-59
2022/07/08 08:01:12;;;;;;;;;;;;;;;14.81;56.73;99208.16;5091789;28;19931;-60
2022/07/08 08:03:41;;;;;;;;;;;;;;;14.86;57.41;99205.28;5083414;28;19930;-60
2022/07/08 08:06:35;;;;;;;;;;;;;;;14.83;57.95;99195.78;5083866;28;21016;-60
2022/07/08 08:09:06;;;;;;;;;;;;;;;14.88;57.87;99195.66;5097127;28;19942;-60
2022/07/08 08:11:38;;;;;;;;;;;;;;;14.92;58.03;99195.84;5093285;28;19920;-60
2022/07/08 08:14:07;;;;;;;;;;;;;;;14.94;57.65;99197.16;5090775;28;19927;-60
2022/07/08 08:16:35;;;;;;;;;;;;;;;15.17;56.99;99197.19;5096050;28;19930;-60
2022/07/08 08:19:03;;;;;;;;;;;;;;;15.27;57.00;99204.34;5085901;28;19920;-60
2022/07/08 08:21:31;;;;;;;;;;;;;;;15.39;55.90;99219.13;5079916;28;19926;-60
2022/07/08 08:24:00;;;;;;;;;;;;;;;15.69;55.54;99209.34;5081773;28;20266;-62
2022/07/08 08:26:33;;;;;;;;;;;;;;;15.78;54.56;99216.81;5082682;28;19924;-61
2022/07/08 08:29:02;;;;;;;;;;;;;;;15.64;54.74;99214.94;5090056;28;20273;-61
2022/07/08 08:31:30;;;;;;;;;;;;;;;15.77;55.28;99220.69;5084209;28;19920;-60
2022/07/08 08:33:58;;;;;;;;;;;;;;;15.62;54.89;99222.66;5088569;28;19938;-60
2022/07/08 08:36:27;;;;;;;;;;;;;;;15.60;55.39;99215.84;5092738;28;20353;-60
2022/07/08 08:38:55;;;;;;;;;;;;;;;15.53;55.51;99219.03;5081331;28;19924;-60
2022/07/08 08:41:23;;;;;;;;;;;;;;;15.78;55.22;99225.84;5095753;28;20387;-60
2022/07/08 08:43:52;;;;;;;;;;;;;;;15.93;54.85;99219.97;5083683;28;19920;-61
2022/07/08 08:46:23;;;;;;;;;;;;;;;15.63;55.17;99221.53;5089823;28;19973;-61
2022/07/08 08:48:56;;;;;;;;;;;;;;;15.81;54.68;99219.72;5064091;28;19931;-61
2022/07/08 08:51:40;;;;;;;;;;;;;;;15.88;53.75;99230.25;5095969;28;19920;-60
2022/07/08 08:54:12;;;;;;;;;;;;;;;15.83;54.79;99230.38;5073978;28;19977;-61
2022/07/08 08:56:40;;;;;;;;;;;;;;;15.95;53.04;99220.44;5078709;28;20379;-63
2022/07/08 08:59:08;;;;;;;;;;;;;;;15.99;53.16;99231.59;5084710;28;19928;-60
2022/07/08 09:01:38;;;;;;;;;;;;;;;16.21;53.60;99234.28;5080625;28;19927;-60
2022/07/08 09:04:10;;;;;;;;;;;;;;;16.31;52.79;99230.44;5079653;28;19934;-62
2022/07/08 09:07:01;;;;;;;;;;;;;;;16.42;51.57;99231.78;5077493;28;19940;-59
2022/07/08 09:09:35;;;;;;;;;;;;;;;16.66;50.11;99236.84;5073186;28;20315;-61
2022/07/08 09:12:17;;;;;;;;;;;;;;;16.54;51.17;99231.16;5073195;28;19936;-61
2022/07/08 09:14:49;;;;;;;;;;;;;;;16.59;51.35;99239.25;5082948;28;19920;-62
2022/07/08 09:17:20;;;;;;;;;;;;;;;16.46;51.80;99234.72;5074796;28;19921;-61
2022/07/08 09:19:48;;;;;;;;;;;;;;;16.32;52.09;99234.81;5105913;27;19923;-62
2022/07/08 09:22:18;;;;;;;;;;;;;;;16.38;51.90;99233.53;5115136;27;19920;-63
2022/07/08 09:24:46;;;;;;;;;;;;;;;16.47;51.43;99225.34;5103857;27;19926;-63
2022/07/08 09:27:14;;;;;;;;;;;;;;;16.59;51.38;99232.97;5100788;27;19926;-61
2022/07/08 09:29:56;;;;;;;;;;;;;;;16.61;50.08;99223.25;5097335;27;19925;-62
2022/07/08 09:32:29;;;;;;;;;;;;;;;16.87;49.92;99228.03;5106176;27;19919;-63
2022/07/08 09:34:57;;;;;;;;;;;;;;;16.57;49.83;99229.75;5102306;28;19931;-62
2022/07/08 09:37:24;;;;;;;;;;;;;;;16.58;50.46;99231.34;5086961;28;19919;-61
2022/07/08 09:39:53;;;;;;;;;;;;;;;16.69;50.55;99233.47;5112173;27;19934;-58
2022/07/08 09:42:22;;;;;;;;;;;;;;;16.80;50.36;99238.69;5078503;28;20269;-58
2022/07/08 09:45:00;;;;;;;;;;;;;;;16.76;49.68;99236.56;5101503;28;19936;-64
2022/07/08 09:47:30;;;;;;;;;;;;;;;16.93;49.22;99227.56;5105404;27;19919;-62
2022/07/08 09:49:58;;;;;;;;;;;;;;;17.12;49.86;99221.78;5104338;28;20220;-62
2022/07/08 09:52:26;;;;;;;;;;;;;;;17.51;48.32;99230.97;5105368;28;20015;-59
2022/07/08 09:55:03;;;;;;;;;;;;;;;17.14;47.55;99233.22;5110050;27;19926;-62
2022/07/08 09:57:32;;;;;;;;;;;;;;;17.37;47.09;99205.63;5105253;27;19924;-64
2022/07/08 09:59:59;;;;;;;;;;;;;;;17.43;47.63;99216.13;5106691;27;19946;-63
2022/07/08 10:02:30;;;;;;;;;;;;;;;17.45;48.21;99215.78;5080022;28;19932;-62
2022/07/08 10:04:58;;;;;;;;;;;;;;;17.30;48.68;99225.31;5093537;28;20463;-59
2022/07/08 10:07:26;;;;;;;;;;;;;;;17.17;49.39;99224.34;5103752;27;20357;-62
2022/07/08 10:09:54;;;;;;;;;;;;;;;17.31;48.68;99226.13;5104394;28;20247;-62
2022/07/08 10:12:22;;;;;;;;;;;;;;;17.26;48.72;99227.13;5103650;28;19932;-64
2022/07/08 10:14:52;;;;;;;;;;;;;;;17.43;47.65;99229.03;5102547;28;19940;-64
2022/07/08 10:17:49;;;;;;;;;;;;;;;17.34;48.03;99234.53;5099432;28;20385;-62
2022/07/08 10:20:18;;;;;;;;;;;;;;;17.36;47.56;99229.50;5097530;28;19920;-63
2022/07/08 10:22:47;;;;;;;;;;;;;;;17.51;47.58;99230.97;5102625;28;19920;-62
2022/07/08 10:25:16;;;;;;;;;;;;;;;17.67;46.87;99229.31;5103859;28;19927;-59
2022/07/08 10:27:46;;;;;;;;;;;;;;;17.64;46.83;99232.75;5094182;28;19923;-63
2022/07/08 10:30:14;;;;;;;;;;;;;;;17.61;46.20;99230.63;5094943;28;19942;-61
2022/07/08 10:32:47;;;;;;;;;;;;;;;17.83;46.68;99226.91;5103947;28;20251;-62
2022/07/08 10:35:19;;;;;;;;;;;;;;;17.92;46.32;99229.63;5102944;28;20336;-62
2022/07/08 10:37:50;;;;;;;;;;;;;;;18.00;46.25;99237.88;5097509;28;19920;-63
2022/07/08 10:40:42;;;;;;;;;;;;;;;17.89;46.08;99228.34;5102601;28;20342;-62
2022/07/08 10:43:16;;;;;;;;;;;;;;;17.46;46.41;99222.88;5103082;28;19932;-60
2022/07/08 10:45:58;;;;;;;;;;;;;;;17.62;46.38;99228.69;5091607;28;19931;-64
2022/07/08 10:48:28;;;;;;;;;;;;;;;17.62;46.28;99224.00;5094534;28;19924;-63
2022/07/08 10:50:56;;;;;;;;;;;;;;;17.89;45.73;99222.84;5090814;28;19926;-62
2022/07/08 10:53:46;;;;;;;;;;;;;;;17.95;45.35;99217.97;5099902;28;20460;-63
2022/07/08 10:56:14;;;;;;;;;;;;;;;18.10;44.68;99214.69;5107226;28;19920;-62
2022/07/08 10:58:57;;;;;;;;;;;;;;;18.07;44.61;99215.34;5104195;28;20133;-63
2022/07/08 11:01:26;;;;;;;;;;;;;;;18.34;44.21;99200.34;5106873;27;19919;-62
2022/07/08 11:03:56;;;;;;;;;;;;;;;18.10;45.63;99213.88;5109060;28;20335;-62
2022/07/08 11:06:49;;;;;;;;;;;;;;;18.18;45.83;99215.81;5106893;28;19930;-63
2022/07/08 11:09:18;;;;;;;;;;;;;;;18.11;45.68;99218.25;5103420;28;19923;-63
2022/07/08 11:11:46;;;;;;;;;;;;;;;17.93;46.08;99214.75;5096255;28;19950;-62
2022/07/08 11:14:14;;;;;;;;;;;;;;;17.97;46.23;99216.50;5107747;28;19942;-63
2022/07/08 11:19:36;;;;;;;;;;;;;;;17.99;45.39;99214.22;5078808;28;19930;-63
2022/07/08 11:22:04;;;;;;;;;;;;;;;18.10;44.80;99209.19;5085594;28;20367;-59
2022/07/08 11:24:50;;;;;;;;;;;;;;;18.04;44.94;99199.50;5086894;28;19942;-61
2022/07/08 11:27:24;;;;;;;;;;;;;;;17.99;45.25;99213.44;5083904;28;20361;-60
2022/07/08 11:29:57;;;;;;;;;;;;;;;17.96;44.75;99208.59;5079233;28;19925;-59
2022/07/08 11:32:25;;;;;;;;;;;;;;;18.07;45.24;99215.34;5072840;28;19942;-61
2022/07/08 11:34:55;;;;;;;;;;;;;;;18.25;44.43;99197.63;5090415;28;19926;-60
2022/07/08 11:37:23;;;;;;;;;;;;;;;18.37;44.32;99196.13;5088490;28;19927;-58
2022/07/08 11:39:51;;;;;;;;;;;;;;;18.54;44.22;99205.13;5106160;28;19931;-63
2022/07/08 11:42:19;;;;;;;;;;;;;;;18.49;44.40;99188.78;5101735;27;20350;-61
2022/07/08 11:47:41;;;;;;;;;;;;;;;18.46;44.79;99192.19;5099181;27;20574;-61
2022/07/08 11:50:10;;;;;;;;;;;;;;;18.56;44.32;99199.28;5106515;28;20251;-62
2022/07/08 11:52:39;;;;;;;;;;;;;;;18.65;43.89;99186.28;5104962;28;20348;-62
2022/07/08 11:55:07;;;;;;;;;;;;;;;18.84;44.10;99178.38;5098693;27;20003;-62
2022/07/08 11:57:39;;;;;;;;;;;;;;;18.80;43.84;99180.22;5101778;27;19930;-62
2022/07/08 12:00:08;;;;;;;;;;;;;;;18.60;44.87;99191.97;5099355;27;19939;-61
2022/07/08 12:02:38;;;;;;;;;;;;;;;18.39;45.48;99188.38;5101174;28;20433;-60
2022/07/08 12:05:08;;;;;;;;;;;;;;;18.52;45.10;99195.56;5103378;27;19926;-62
2022/07/08 12:08:01;;;;;;;;;;;;;;;18.46;45.72;99197.69;5102322;27;19924;-63
2022/07/08 12:10:58;;;;;;;;;;;;;;;18.43;45.67;99192.03;5106706;27;19979;-61
2022/07/08 12:13:40;;;;;;;;;;;;;;;18.53;46.15;99192.47;5104824;27;19941;-63
2022/07/08 12:16:08;;;;;;;;;;;;;;;18.57;45.04;99187.13;5106317;28;19942;-62
2022/07/08 12:18:36;;;;;;;;;;;;;;;18.63;45.28;99188.53;5114817;27;20363;-63
2022/07/08 12:21:17;;;;;;;;;;;;;;;18.81;45.46;99192.81;5121088;27;19919;-64
2022/07/08 12:23:51;;;;;;;;;;;;;;;18.89;44.16;99185.63;5122534;27;20382;-62
2022/07/08 12:26:19;;;;;;;;;;;;;;;18.99;43.80;99184.44;5131079;27;19924;-63
2022/07/08 12:28:48;;;;;;;;;;;;;;;19.11;44.69;99185.28;5136231;27;19920;-63
2022/07/08 12:31:31;;;;;;;;;;;;;;;19.23;44.13;99184.56;5126622;27;19926;-61
2022/07/08 12:34:02;;;;;;;;;;;;;;;18.92;45.21;99184.19;5130848;27;19934;-62
2022/07/08 12:36:31;;;;;;;;;;;;;;;18.80;45.32;99187.63;5138290;27;19929;-60
2022/07/08 12:39:01;;;;;;;;;;;;;;;18.80;45.26;99182.13;5131936;27;19924;-64
2022/07/08 12:41:29;;;;;;;;;;;;;;;18.63;45.47;99185.78;5133176;27;19920;-63
2022/07/08 12:43:57;;;;;;;;;;;;;;;18.67;45.93;99181.22;5144178;27;19945;-62
2022/07/08 12:46:28;;;;;;;;;;;;;;;18.70;45.52;99183.34;5129402;27;19923;-62
2022/07/08 12:48:56;;;;;;;;;;;;;;;18.72;44.67;99163.75;5128228;27;19919;-62
2022/07/08 12:51:24;;;;;;;;;;;;;;;18.92;44.61;99170.41;5127755;27;20393;-63
2022/07/08 12:53:52;;;;;;;;;;;;;;;18.88;44.14;99180.47;5130105;27;19926;-62
2022/07/08 12:56:22;;;;;;;;;;;;;;;18.99;44.05;99168.72;5130762;27;19966;-60
2022/07/08 12:58:50;;;;;;;;;;;;;;;19.23;43.62;99173.53;5131904;27;19930;-63
2022/07/08 13:01:21;;;;;;;;;;;;;;;19.24;43.95;99172.41;5108137;27;20014;-58
2022/07/08 13:03:49;;;;;;;;;;;;;;;19.14;44.20;99175.56;5121530;27;19920;-61
2022/07/08 13:09:12;;;;;;;;;;;;;;;19.01;44.20;99177.44;5121667;27;19920;-63
2022/07/08 13:11:44;;;;;;;;;;;;;;;19.07;43.71;99172.56;5126910;27;20131;-62
2022/07/08 13:14:12;;;;;;;;;;;;;;;19.13;43.46;99162.94;5124673;27;20166;-57
2022/07/08 13:17:05;;;;;;;;;;;;;;;19.21;43.02;99164.78;5126487;27;19923;-64
2022/07/08 13:19:39;;;;;;;;;;;;;;;19.31;43.10;99169.88;5123751;27;19942;-62
2022/07/08 13:22:07;;;;;;;;;;;;;;;19.49;43.67;99167.75;5123161;27;20270;-63